Time;durP1;ratioP1;P1;durP2;ratioP2;P2;SDS_P1;SDS_P2;PMS_P1;PMS_P2;Temp;Humidity;BMP_temperature;BMP_pressure;BME280_temperature;BME280_humidity;BME280_pressure;Samples;Min_cycle;Max_cycle;Signal;HPM_P1;HPM_P2
2023/04/26 00:02:12;;;;;;;12.80;3.80;;;;;;;;;;5023748;28;20242;-85
2023/04/26 00:04:38;;;;;;;11.63;3.13;;;;;;;;;;5017139;28;20226;-87
2023/04/26 00:07:04;;;;;;;10.37;3.40;;;;;;;;;;5005267;28;20219;-87
2023/04/26 00:09:32;;;;;;;6.93;3.40;;;;;;;;;;5010043;28;20225;-86
2023/04/26 00:12:02;;;;;;;8.13;3.80;;;;;;;;;;4994932;28;20280;-86
2023/04/26 00:14:30;;;;;;;9.30;3.13;;;;;;;;;;5005245;28;20223;-88
2023/04/26 00:16:55;;;;;;;10.40;3.27;;;;;;;;;;5011069;28;20705;-85
2023/04/26 00:19:23;;;;;;;7.53;3.67;;;;;;;;;;5015401;28;20234;-86
2023/04/26 00:21:51;;;;;;;10.80;3.70;;;;;;;;;;5022267;28;20231;-84
2023/04/26 00:24:21;;;;;;;7.90;3.47;;;;;;;;;;5021521;28;20602;-87
2023/04/26 00:26:47;;;;;;;9.73;3.63;;;;;;;;;;5023402;28;20264;-87
2023/04/26 00:29:12;;;;;;;9.43;3.23;;;;;;;;;;5006802;28;20627;-86
2023/04/26 00:31:43;;;;;;;12.47;3.80;;;;;;;;;;5023810;28;20222;-86
2023/04/26 00:34:08;;;;;;;11.57;4.00;;;;;;;;;;5023250;28;20219;-87
2023/04/26 00:36:34;;;;;;;12.17;3.93;;;;;;;;;;5008472;28;20293;-87
2023/04/26 00:39:01;;;;;;;10.60;3.47;;;;;;;;;;5028389;28;20798;-85
2023/04/26 00:41:29;;;;;;;10.90;3.80;;;;;;;;;;5024595;28;20294;-85
2023/04/26 00:43:54;;;;;;;7.40;3.80;;;;;;;;;;5021508;28;20215;-87
2023/04/26 00:46:20;;;;;;;8.30;3.67;;;;;;;;;;5039420;28;20230;-87
2023/04/26 00:48:46;;;;;;;10.90;3.60;;;;;;;;;;5058596;28;20227;-88
2023/04/26 00:51:12;;;;;;;10.97;3.77;;;;;;;;;;5021773;28;20219;-89
2023/04/26 00:53:37;;;;;;;7.47;3.23;;;;;;;;;;5022721;28;20214;-87
2023/04/26 00:56:05;;;;;;;10.70;3.60;;;;;;;;;;5035698;28;20229;-88
2023/04/26 00:58:30;;;;;;;11.83;3.83;;;;;;;;;;5026988;28;20226;-87
2023/04/26 01:00:57;;;;;;;11.97;3.50;;;;;;;;;;5012139;28;20203;-87
2023/04/26 01:03:23;;;;;;;10.17;3.90;;;;;;;;;;5044612;28;20236;-88
2023/04/26 01:05:51;;;;;;;12.20;3.87;;;;;;;;;;5052489;28;20219;-88
2023/04/26 01:08:22;;;;;;;13.97;3.83;;;;;;;;;;5031382;28;20338;-88
2023/04/26 01:10:49;;;;;;;8.13;3.70;;;;;;;;;;5013878;28;20215;-87
2023/04/26 01:13:15;;;;;;;13.37;4.00;;;;;;;;;;5024826;28;20823;-86
2023/04/26 01:15:46;;;;;;;10.70;4.07;;;;;;;;;;5024306;28;20255;-85
2023/04/26 01:18:13;;;;;;;10.57;3.80;;;;;;;;;;5024606;28;20222;-88
2023/04/26 01:20:41;;;;;;;8.37;4.03;;;;;;;;;;5002963;28;20229;-88
2023/04/26 01:23:08;;;;;;;8.07;3.30;;;;;;;;;;5011556;28;20731;-88
2023/04/26 01:25:36;;;;;;;5.83;3.10;;;;;;;;;;5018357;28;20231;-86
2023/04/26 01:28:02;;;;;;;11.87;3.57;;;;;;;;;;5021480;28;20218;-89
2023/04/26 01:30:27;;;;;;;7.20;3.73;;;;;;;;;;4995980;28;20313;-88
2023/04/26 01:32:53;;;;;;;10.70;4.10;;;;;;;;;;5026150;28;20223;-86
2023/04/26 01:35:21;;;;;;;8.03;4.43;;;;;;;;;;5022734;28;20268;-86
2023/04/26 01:37:47;;;;;;;11.57;4.73;;;;;;;;;;5046370;28;20229;-88
2023/04/26 01:40:12;;;;;;;10.83;4.43;;;;;;;;;;4999008;28;20220;-87
2023/04/26 01:42:38;;;;;;;14.47;5.00;;;;;;;;;;5033963;28;20299;-86
2023/04/26 01:45:04;;;;;;;10.77;4.87;;;;;;;;;;5001919;28;20223;-88
2023/04/26 01:47:49;;;;;;;10.43;4.50;;;;;;;;;;5028296;28;20299;-87
2023/04/26 01:50:15;;;;;;;13.67;4.97;;;;;;;;;;5023770;28;20688;-87
2023/04/26 01:52:41;;;;;;;15.53;4.83;;;;;;;;;;5047348;28;20266;-87
2023/04/26 01:55:07;;;;;;;11.20;4.63;;;;;;;;;;5039046;28;20243;-88
2023/04/26 01:57:37;;;;;;;13.80;5.20;;;;;;;;;;5019202;28;20583;-85
2023/04/26 02:00:05;;;;;;;12.90;4.80;;;;;;;;;;5007915;28;20254;-86
2023/04/26 02:02:38;;;;;;;9.03;5.10;;;;;;;;;;5016041;28;20228;-87
2023/04/26 02:05:04;;;;;;;9.97;4.90;;;;;;;;;;5016897;28;20296;-86
2023/04/26 02:07:30;;;;;;;10.73;4.90;;;;;;;;;;5024392;28;20226;-86
2023/04/26 02:09:55;;;;;;;10.87;5.17;;;;;;;;;;5024746;28;20714;-86
2023/04/26 02:12:21;;;;;;;8.67;4.47;;;;;;;;;;5001184;28;20231;-86
2023/04/26 02:14:50;;;;;;;8.93;4.30;;;;;;;;;;5011035;28;20276;-86
2023/04/26 02:17:16;;;;;;;10.73;5.33;;;;;;;;;;5009961;28;20222;-86
2023/04/26 02:19:41;;;;;;;10.23;4.63;;;;;;;;;;5027647;28;20245;-86
2023/04/26 02:22:10;;;;;;;11.33;4.57;;;;;;;;;;5011064;28;20599;-86
2023/04/26 02:24:35;;;;;;;14.33;5.10;;;;;;;;;;5027565;28;20284;-87
2023/04/26 02:27:04;;;;;;;10.17;5.33;;;;;;;;;;5011237;28;20230;-86
2023/04/26 02:29:30;;;;;;;10.67;4.93;;;;;;;;;;5032693;28;20221;-86
2023/04/26 02:31:57;;;;;;;10.47;5.00;;;;;;;;;;5027054;28;20231;-86
2023/04/26 02:34:28;;;;;;;12.40;4.87;;;;;;;;;;5025838;28;20229;-85
2023/04/26 02:36:54;;;;;;;12.03;5.07;;;;;;;;;;5027193;28;20211;-85
2023/04/26 02:39:21;;;;;;;10.03;5.00;;;;;;;;;;5008565;28;20227;-87
2023/04/26 02:41:46;;;;;;;11.03;5.17;;;;;;;;;;5025674;28;20229;-87
2023/04/26 02:44:12;;;;;;;9.00;5.03;;;;;;;;;;5017587;28;20276;-86
2023/04/26 02:46:38;;;;;;;11.57;5.03;;;;;;;;;;5006791;28;20231;-87
2023/04/26 02:49:07;;;;;;;13.93;5.50;;;;;;;;;;4989258;28;20654;-86
2023/04/26 02:51:32;;;;;;;10.90;4.97;;;;;;;;;;5020085;28;20297;-85
2023/04/26 02:53:58;;;;;;;10.53;5.60;;;;;;;;;;5024397;28;20219;-88
2023/04/26 02:56:24;;;;;;;9.17;5.20;;;;;;;;;;5006130;28;20215;-85
2023/04/26 02:58:50;;;;;;;10.70;5.70;;;;;;;;;;5022751;28;20219;-87
2023/04/26 03:01:16;;;;;;;10.53;5.53;;;;;;;;;;5009288;28;20222;-87
2023/04/26 03:03:47;;;;;;;15.40;5.77;;;;;;;;;;5043060;28;20218;-87
2023/04/26 03:06:14;;;;;;;9.10;5.57;;;;;;;;;;5010327;28;20223;-84
2023/04/26 03:08:40;;;;;;;9.97;5.27;;;;;;;;;;5016263;28;20218;-86
2023/04/26 03:11:06;;;;;;;13.50;5.00;;;;;;;;;;5022843;28;20223;-87
2023/04/26 03:13:33;;;;;;;9.07;5.30;;;;;;;;;;5018766;28;20227;-87
2023/04/26 03:15:59;;;;;;;11.60;5.00;;;;;;;;;;5004748;28;20258;-86
2023/04/26 03:18:25;;;;;;;9.07;5.33;;;;;;;;;;5020267;28;20243;-86
2023/04/26 03:20:51;;;;;;;11.27;5.50;;;;;;;;;;5019737;28;20278;-86
2023/04/26 03:23:17;;;;;;;11.13;5.57;;;;;;;;;;5027975;28;20233;-87
2023/04/26 03:25:42;;;;;;;13.47;5.40;;;;;;;;;;5033423;28;20215;-86
2023/04/26 03:28:08;;;;;;;11.50;5.60;;;;;;;;;;5024043;28;20306;-88
2023/04/26 03:30:36;;;;;;;7.13;5.03;;;;;;;;;;5020296;28;20218;-88
2023/04/26 03:33:02;;;;;;;12.83;5.40;;;;;;;;;;5018222;28;20222;-88
2023/04/26 03:35:27;;;;;;;10.97;5.30;;;;;;;;;;5028291;28;20211;-87
2023/04/26 03:37:53;;;;;;;15.40;5.67;;;;;;;;;;5005764;28;20268;-87
2023/04/26 03:40:19;;;;;;;9.87;5.80;;;;;;;;;;5007641;28;20233;-86
2023/04/26 03:42:45;;;;;;;8.90;5.30;;;;;;;;;;5038046;28;20215;-88
2023/04/26 03:45:13;;;;;;;8.67;5.50;;;;;;;;;;5005669;28;20211;-81
2023/04/26 03:47:39;;;;;;;9.90;5.77;;;;;;;;;;4997370;28;20219;-81
2023/04/26 03:50:07;;;;;;;9.00;5.70;;;;;;;;;;5031181;28;20215;-81
2023/04/26 03:52:32;;;;;;;10.10;6.40;;;;;;;;;;5027473;28;20222;-80
2023/04/26 03:54:58;;;;;;;10.97;6.90;;;;;;;;;;4998252;28;21017;-79
2023/04/26 03:57:25;;;;;;;9.97;5.73;;;;;;;;;;5007616;28;20231;-78
2023/04/26 03:59:51;;;;;;;14.47;6.97;;;;;;;;;;5030678;28;20913;-78
2023/04/26 04:02:17;;;;;;;13.30;6.30;;;;;;;;;;5038394;28;20219;-79
2023/04/26 04:04:42;;;;;;;13.83;7.03;;;;;;;;;;5033195;28;20218;-81
2023/04/26 04:07:08;;;;;;;14.20;6.83;;;;;;;;;;5015266;28;20684;-80
2023/04/26 04:09:36;;;;;;;11.30;6.93;;;;;;;;;;5018977;28;20230;-82
2023/04/26 04:12:02;;;;;;;15.80;7.27;;;;;;;;;;5017849;28;20304;-83
2023/04/26 04:14:30;;;;;;;12.77;7.13;;;;;;;;;;5003919;28;20292;-82
2023/04/26 04:16:55;;;;;;;15.03;6.97;;;;;;;;;;5059562;28;20219;-80
2023/04/26 04:19:21;;;;;;;13.97;8.17;;;;;;;;;;5024490;28;20239;-81
2023/04/26 04:21:53;;;;;;;16.83;7.07;;;;;;;;;;5020445;28;20223;-78
2023/04/26 04:24:31;;;;;;;15.17;7.90;;;;;;;;;;5016811;28;20226;-82
2023/04/26 04:27:12;;;;;;;11.20;7.67;;;;;;;;;;5037945;28;20428;-80
2023/04/26 04:29:50;;;;;;;9.40;6.20;;;;;;;;;;5056322;28;20227;-81
2023/04/26 04:32:22;;;;;;;11.60;6.33;;;;;;;;;;5034122;28;20227;-79
2023/04/26 04:34:55;;;;;;;11.07;6.37;;;;;;;;;;5013023;28;20225;-79
2023/04/26 04:37:33;;;;;;;8.73;6.10;;;;;;;;;;5022580;28;20241;-82
2023/04/26 04:43:02;;;;;;;13.93;6.37;;;;;;;;;;5024310;28;20224;-81
2023/04/26 04:45:32;;;;;;;15.43;7.60;;;;;;;;;;4982933;28;20226;-80
2023/04/26 04:48:06;;;;;;;14.30;6.50;;;;;;;;;;5022333;28;20278;-78
2023/04/26 04:50:31;;;;;;;10.63;6.50;;;;;;;;;;5013388;28;20229;-81
2023/04/26 04:53:35;;;;;;;;;;;;;;;;;;;;;
2023/04/26 04:56:22;;;;;;;;;;;;;;;;;;;;;
2023/04/26 04:59:02;;;;;;;;;;;;;;;;;;;;;
2023/04/26 05:01:37;;;;;;;12.60;6.10;;;;;;;;;;5024784;28;20226;-80
2023/04/26 05:04:06;;;;;;;9.00;5.47;;;;;;;;;;4995223;28;20215;-81
2023/04/26 05:06:53;;;;;;;;;;;;;;;;;;;;;
2023/04/26 05:09:32;;;;;;;11.67;6.13;;;;;;;;;;5018531;28;20283;-82
2023/04/26 05:11:58;;;;;;;12.83;5.67;;;;;;;;;;5026552;28;20229;-79
2023/04/26 05:14:46;;;;;;;;;;;;;;;;;;;;;
2023/04/26 05:17:31;;;;;;;11.50;5.73;;;;;;;;;;5026058;28;20313;-81
2023/04/26 05:20:05;;;;;;;11.97;5.77;;;;;;;;;;5029625;28;20214;-81
2023/04/26 05:22:35;;;;;;;7.90;5.40;;;;;;;;;;5003187;28;20238;-81
2023/04/26 05:25:09;;;;;;;10.33;5.50;;;;;;;;;;5014608;28;20226;-80
2023/04/26 05:27:36;;;;;;;9.97;5.77;;;;;;;;;;5026635;28;20863;-82
2023/04/26 05:30:16;;;;;;;7.13;5.13;;;;;;;;;;5059383;28;20225;-81
2023/04/26 05:33:14;;;;;;;8.40;5.10;;;;;;;;;;5051368;28;20821;-81
2023/04/26 05:35:47;;;;;;;6.93;4.73;;;;;;;;;;5037713;28;20287;-79
2023/04/26 05:38:15;;;;;;;9.13;5.33;;;;;;;;;;5051718;28;20294;-79
2023/04/26 05:40:47;;;;;;;10.33;5.60;;;;;;;;;;5029951;28;20232;-82
2023/04/26 05:43:13;;;;;;;9.20;5.33;;;;;;;;;;5046096;28;20252;-83
2023/04/26 05:45:54;;;;;;;12.13;5.53;;;;;;;;;;5022722;28;20614;-79
2023/04/26 05:48:26;;;;;;;9.63;4.97;;;;;;;;;;5012394;28;20223;-81
2023/04/26 05:50:51;;;;;;;8.50;4.80;;;;;;;;;;5037423;28;20223;-80
2023/04/26 05:53:22;;;;;;;9.37;5.00;;;;;;;;;;5044647;28;20243;-83
2023/04/26 05:55:47;;;;;;;10.67;5.13;;;;;;;;;;5014924;28;20230;-81
2023/04/26 05:58:14;;;;;;;10.53;5.03;;;;;;;;;;5059574;28;20224;-81
2023/04/26 06:00:46;;;;;;;8.07;4.70;;;;;;;;;;5028922;28;20224;-80
2023/04/26 06:03:18;;;;;;;10.47;4.83;;;;;;;;;;5025994;28;20238;-78
2023/04/26 06:05:44;;;;;;;8.93;4.77;;;;;;;;;;5053412;28;20701;-81
2023/04/26 06:08:20;;;;;;;8.43;4.00;;;;;;;;;;5045322;28;20227;-80
2023/04/26 06:10:52;;;;;;;8.53;4.47;;;;;;;;;;5042497;28;20305;-79
2023/04/26 06:13:22;;;;;;;11.37;4.30;;;;;;;;;;5018491;28;20227;-79
2023/04/26 06:15:48;;;;;;;8.10;4.30;;;;;;;;;;5018364;28;20214;-81
2023/04/26 06:18:15;;;;;;;10.60;4.77;;;;;;;;;;5028822;28;20237;-81
2023/04/26 06:20:41;;;;;;;9.50;3.97;;;;;;;;;;5048469;28;20230;-78
2023/04/26 06:23:06;;;;;;;9.17;4.30;;;;;;;;;;5027780;28;20605;-81
2023/04/26 06:25:35;;;;;;;11.00;4.50;;;;;;;;;;5007082;28;20257;-81
2023/04/26 06:28:02;;;;;;;8.77;4.20;;;;;;;;;;5030652;28;20211;-79
2023/04/26 06:30:30;;;;;;;8.40;3.97;;;;;;;;;;5031070;28;20226;-82
2023/04/26 06:32:59;;;;;;;6.07;4.00;;;;;;;;;;5030927;28;20223;-82
2023/04/26 06:35:25;;;;;;;9.43;4.20;;;;;;;;;;5028746;28;20223;-81
2023/04/26 06:37:51;;;;;;;8.77;4.47;;;;;;;;;;5045362;28;20278;-78
2023/04/26 06:40:27;;;;;;;9.20;3.97;;;;;;;;;;5022256;28;20243;-81
2023/04/26 06:42:56;;;;;;;7.73;4.07;;;;;;;;;;5028729;28;20244;-79
2023/04/26 06:45:33;;;;;;;11.43;4.40;;;;;;;;;;5027035;28;20222;-79
2023/04/26 06:48:00;;;;;;;11.37;4.77;;;;;;;;;;5028704;28;20749;-81
2023/04/26 06:50:26;;;;;;;8.17;3.80;;;;;;;;;;5049614;28;20611;-78
2023/04/26 06:52:52;;;;;;;6.80;3.67;;;;;;;;;;5008042;28;20246;-80
2023/04/26 06:55:20;;;;;;;9.03;3.93;;;;;;;;;;5026474;28;20850;-80
2023/04/26 06:57:46;;;;;;;7.23;4.00;;;;;;;;;;5023924;28;20217;-80
2023/04/26 07:00:14;;;;;;;11.87;3.70;;;;;;;;;;5041043;28;20242;-79
2023/04/26 07:02:40;;;;;;;8.80;3.53;;;;;;;;;;5062159;28;20223;-82
2023/04/26 07:05:06;;;;;;;8.67;3.40;;;;;;;;;;5020606;28;20438;-81
2023/04/26 07:07:31;;;;;;;8.17;3.50;;;;;;;;;;5033167;28;20281;-78
2023/04/26 07:10:07;;;;;;;9.60;3.40;;;;;;;;;;5037752;28;20218;-79
2023/04/26 07:12:33;;;;;;;6.20;3.23;;;;;;;;;;5035446;28;20229;-80
2023/04/26 07:15:00;;;;;;;9.53;3.70;;;;;;;;;;5052674;28;20286;-80
2023/04/26 07:17:31;;;;;;;8.90;3.30;;;;;;;;;;5035957;28;20247;-80
2023/04/26 07:19:59;;;;;;;6.07;3.10;;;;;;;;;;5052974;28;20302;-80
2023/04/26 07:22:24;;;;;;;10.47;3.50;;;;;;;;;;5031654;28;20322;-78
2023/04/26 07:24:50;;;;;;;6.40;3.20;;;;;;;;;;5012170;28;20283;-80
2023/04/26 07:27:19;;;;;;;7.70;3.20;;;;;;;;;;5060732;28;20222;-83
2023/04/26 07:29:47;;;;;;;7.37;3.20;;;;;;;;;;5033941;28;20215;-81
2023/04/26 07:32:13;;;;;;;7.20;3.10;;;;;;;;;;5038404;28;20734;-79
2023/04/26 07:34:39;;;;;;;5.50;2.80;;;;;;;;;;5023845;28;20227;-81
2023/04/26 07:37:06;;;;;;;8.63;3.03;;;;;;;;;;5016504;28;20257;-80
2023/04/26 07:39:31;;;;;;;9.03;2.73;;;;;;;;;;5038381;28;20684;-81
2023/04/26 07:41:57;;;;;;;8.57;2.97;;;;;;;;;;5045282;28;20226;-81
2023/04/26 07:44:23;;;;;;;5.87;2.87;;;;;;;;;;5050771;28;20207;-79
2023/04/26 07:47:13;;;;;;;8.03;2.90;;;;;;;;;;5040519;28;20222;-78
2023/04/26 07:49:44;;;;;;;6.50;2.83;;;;;;;;;;5065919;28;20223;-79
2023/04/26 07:52:12;;;;;;;7.23;3.10;;;;;;;;;;5047623;28;20230;-80
2023/04/26 07:54:39;;;;;;;5.23;2.80;;;;;;;;;;5055697;28;20214;-76
2023/04/26 07:57:20;;;;;;;9.07;3.33;;;;;;;;;;5047294;28;20458;-81
2023/04/26 07:59:45;;;;;;;8.83;3.10;;;;;;;;;;5049493;28;20227;-82
2023/04/26 08:02:20;;;;;;;7.40;2.70;;;;;;;;;;5044363;28;20225;-81
2023/04/26 08:04:51;;;;;;;8.00;2.70;;;;;;;;;;5048520;28;20226;-80
2023/04/26 08:07:25;;;;;;;7.87;3.00;;;;;;;;;;5026370;28;20214;-80
2023/04/26 08:10:00;;;;;;;6.67;2.87;;;;;;;;;;5024567;28;20222;-78
2023/04/26 08:12:29;;;;;;;7.07;3.03;;;;;;;;;;5037851;28;20211;-78
2023/04/26 08:14:55;;;;;;;7.13;2.80;;;;;;;;;;5020803;28;20219;-78
2023/04/26 08:17:30;;;;;;;4.50;2.67;;;;;;;;;;5049985;28;20222;-78
2023/04/26 08:20:14;;;;;;;6.27;2.50;;;;;;;;;;5062270;28;20239;-80
2023/04/26 08:22:40;;;;;;;7.07;2.50;;;;;;;;;;5045698;28;20226;-79
2023/04/26 08:25:13;;;;;;;6.17;2.53;;;;;;;;;;5061114;28;20698;-81
2023/04/26 08:27:39;;;;;;;5.23;2.67;;;;;;;;;;5061942;28;20211;-80
2023/04/26 08:30:14;;;;;;;8.60;2.40;;;;;;;;;;5029614;28;20221;-80
2023/04/26 08:32:44;;;;;;;7.03;2.70;;;;;;;;;;5051819;28;20223;-81
2023/04/26 08:35:13;;;;;;;5.53;2.40;;;;;;;;;;5029588;28;20231;-79
2023/04/26 08:37:39;;;;;;;4.83;2.37;;;;;;;;;;5043225;28;20248;-81
2023/04/26 08:40:14;;;;;;;5.97;2.40;;;;;;;;;;5038891;28;20218;-77
2023/04/26 08:42:42;;;;;;;6.60;2.83;;;;;;;;;;5042256;28;20249;-80
2023/04/26 08:45:10;;;;;;;9.50;2.50;;;;;;;;;;5047228;28;20646;-79
2023/04/26 08:47:43;;;;;;;5.27;2.50;;;;;;;;;;5031311;28;20331;-78
2023/04/26 08:50:20;;;;;;;7.40;2.30;;;;;;;;;;5072543;28;20245;-79
2023/04/26 08:52:47;;;;;;;5.73;2.63;;;;;;;;;;5027089;28;20235;-80
2023/04/26 08:55:15;;;;;;;5.17;2.23;;;;;;;;;;5029750;28;20228;-79
2023/04/26 08:57:46;;;;;;;6.37;2.40;;;;;;;;;;5044827;28;21144;-80
2023/04/26 09:00:16;;;;;;;6.10;2.70;;;;;;;;;;5045570;28;20230;-80
2023/04/26 09:02:49;;;;;;;7.60;2.43;;;;;;;;;;5057703;28;20230;-80
2023/04/26 09:05:15;;;;;;;9.27;3.20;;;;;;;;;;5029179;28;20248;-80
2023/04/26 09:07:55;;;;;;;5.67;2.90;;;;;;;;;;5029685;28;20219;-80
2023/04/26 09:10:21;;;;;;;7.03;2.73;;;;;;;;;;5050957;28;20238;-80
2023/04/26 09:12:56;;;;;;;7.63;3.10;;;;;;;;;;5029380;28;20223;-80
2023/04/26 09:15:32;;;;;;;6.33;3.23;;;;;;;;;;5012548;28;20226;-80
2023/04/26 09:18:16;;;;;;;4.73;2.50;;;;;;;;;;5032422;28;20215;-80
2023/04/26 09:20:45;;;;;;;5.93;3.10;;;;;;;;;;5052885;28;20264;-80
2023/04/26 09:23:11;;;;;;;6.00;2.90;;;;;;;;;;5035344;28;20697;-81
2023/04/26 09:25:37;;;;;;;7.80;3.20;;;;;;;;;;5032235;28;20225;-79
2023/04/26 09:28:20;;;;;;;5.53;2.90;;;;;;;;;;5048161;28;20215;-79
2023/04/26 09:30:48;;;;;;;7.93;2.70;;;;;;;;;;5057757;28;20888;-79
2023/04/26 09:33:20;;;;;;;7.63;2.80;;;;;;;;;;5045585;28;20227;-80
2023/04/26 09:35:49;;;;;;;7.07;2.87;;;;;;;;;;5047040;28;20222;-81
2023/04/26 09:38:17;;;;;;;6.07;2.80;;;;;;;;;;5038183;28;20230;-80
2023/04/26 09:40:58;;;;;;;8.70;3.13;;;;;;;;;;5063978;28;20231;-80
2023/04/26 09:43:30;;;;;;;5.93;3.37;;;;;;;;;;5063112;28;20238;-81
2023/04/26 09:45:57;;;;;;;6.50;2.70;;;;;;;;;;5031024;28;20223;-80
2023/04/26 09:48:30;;;;;;;6.07;2.87;;;;;;;;;;5024025;28;20232;-81
2023/04/26 09:51:01;;;;;;;5.03;2.73;;;;;;;;;;5047926;28;20218;-80
2023/04/26 09:53:27;;;;;;;6.10;2.47;;;;;;;;;;5045093;28;20215;-78
2023/04/26 09:55:56;;;;;;;3.73;2.50;;;;;;;;;;5032605;28;20219;-78
2023/04/26 09:58:29;;;;;;;2.90;2.53;;;;;;;;;;5040001;28;20253;-78
2023/04/26 10:01:00;;;;;;;4.77;2.40;;;;;;;;;;5047604;28;20703;-77
2023/04/26 10:03:27;;;;;;;4.57;2.50;;;;;;;;;;5046134;28;20231;-78
2023/04/26 10:06:06;;;;;;;8.97;2.37;;;;;;;;;;5021261;28;20267;-79
2023/04/26 10:08:40;;;;;;;5.20;2.80;;;;;;;;;;5047416;28;20683;-81
2023/04/26 10:11:10;;;;;;;3.83;2.30;;;;;;;;;;5042826;28;20715;-79
2023/04/26 10:13:43;;;;;;;8.20;2.97;;;;;;;;;;5043571;28;20252;-79
2023/04/26 10:16:12;;;;;;;5.33;2.60;;;;;;;;;;5046020;28;20828;-79
2023/04/26 10:18:51;;;;;;;6.47;2.40;;;;;;;;;;5043413;28;20226;-81
2023/04/26 10:21:20;;;;;;;16.80;14.10;;;;;;;;;;5059498;28;20295;-80
2023/04/26 10:23:46;;;;;;;9.47;6.53;;;;;;;;;;5034567;28;20543;-78
2023/04/26 10:26:56;;;;;;;7.13;2.73;;;;;;;;;;5049980;28;20317;-80
2023/04/26 10:29:53;;;;;;;9.40;2.53;;;;;;;;;;5065912;28;20226;-80
2023/04/26 10:32:24;;;;;;;4.50;2.00;;;;;;;;;;5080884;28;20234;-78
2023/04/26 10:35:29;;;;;;;7.37;2.17;;;;;;;;;;5035801;28;20218;-78
2023/04/26 10:38:03;;;;;;;4.80;2.13;;;;;;;;;;5021647;28;20219;-80
2023/04/26 10:40:35;;;;;;;7.57;2.20;;;;;;;;;;5077907;28;20238;-79
2023/04/26 10:43:18;;;;;;;5.07;2.20;;;;;;;;;;5045868;28;20226;-77
2023/04/26 10:45:45;;;;;;;3.27;1.90;;;;;;;;;;5045788;28;20237;-79
2023/04/26 10:48:19;;;;;;;5.20;2.30;;;;;;;;;;5071726;28;20227;-78
2023/04/26 10:51:04;;;;;;;5.03;2.50;;;;;;;;;;5041983;28;20227;-79
2023/04/26 10:53:51;;;;;;;5.97;2.60;;;;;;;;;;5072117;28;20683;-81
2023/04/26 10:56:23;;;;;;;6.00;2.70;;;;;;;;;;5054866;28;20286;-81
2023/04/26 10:59:08;;;;;;;7.93;2.87;;;;;;;;;;5040160;28;20225;-80
2023/04/26 11:01:36;;;;;;;6.37;3.03;;;;;;;;;;5061502;28;20211;-80
2023/04/26 11:04:07;;;;;;;7.10;2.53;;;;;;;;;;5051282;28;20227;-82
2023/04/26 11:06:57;;;;;;;5.37;2.70;;;;;;;;;;5047699;28;20331;-81
2023/04/26 11:09:47;;;;;;;5.07;2.70;;;;;;;;;;5047916;28;20227;-80
2023/04/26 11:12:15;;;;;;;4.70;2.20;;;;;;;;;;5061220;28;20268;-81
2023/04/26 11:14:41;;;;;;;5.67;2.83;;;;;;;;;;5038411;28;20320;-78
2023/04/26 11:17:08;;;;;;;6.67;3.00;;;;;;;;;;5040350;28;20788;-81
2023/04/26 11:19:33;;;;;;;7.80;2.80;;;;;;;;;;5020894;28;20231;-80
2023/04/26 11:22:06;;;;;;;5.47;2.60;;;;;;;;;;5023865;28;20222;-77
2023/04/26 11:24:37;;;;;;;3.57;2.50;;;;;;;;;;5033927;28;20257;-80
2023/04/26 11:27:10;;;;;;;4.90;2.50;;;;;;;;;;5033575;28;20227;-79
2023/04/26 11:29:38;;;;;;;5.43;2.63;;;;;;;;;;5033683;28;20260;-79
2023/04/26 11:32:07;;;;;;;4.60;2.50;;;;;;;;;;5048477;28;20317;-79
2023/04/26 11:34:37;;;;;;;3.77;2.37;;;;;;;;;;5049194;28;20237;-79
2023/04/26 11:37:07;;;;;;;5.53;2.47;;;;;;;;;;5063500;28;20334;-79
2023/04/26 11:39:36;;;;;;;5.97;2.70;;;;;;;;;;5014788;28;20227;-79
2023/04/26 11:42:11;;;;;;;6.30;2.97;;;;;;;;;;5033082;28;20224;-78
2023/04/26 11:44:37;;;;;;;4.60;2.67;;;;;;;;;;5049094;28;20228;-78
2023/04/26 11:47:06;;;;;;;3.40;2.50;;;;;;;;;;5012118;28;20678;-77
2023/04/26 11:49:35;;;;;;;6.90;2.50;;;;;;;;;;5038337;28;20218;-77
2023/04/26 11:52:02;;;;;;;6.37;2.73;;;;;;;;;;5060886;28;20238;-79
2023/04/26 11:54:38;;;;;;;3.67;2.57;;;;;;;;;;5035629;28;20730;-81
2023/04/26 11:57:19;;;;;;;4.80;2.90;;;;;;;;;;5010045;28;20240;-79
2023/04/26 11:59:47;;;;;;;6.90;2.63;;;;;;;;;;5045738;28;20253;-78
2023/04/26 12:02:13;;;;;;;6.70;2.40;;;;;;;;;;5029957;28;20235;-78
2023/04/26 12:04:39;;;;;;;4.17;2.00;;;;;;;;;;5033020;28;20246;-76
2023/04/26 12:07:07;;;;;;;3.80;2.23;;;;;;;;;;5022736;28;20223;-80
2023/04/26 12:09:39;;;;;;;3.23;1.90;;;;;;;;;;5066980;28;20229;-79
2023/04/26 12:12:07;;;;;;;3.17;1.87;;;;;;;;;;5044583;28;20222;-79
2023/04/26 12:14:37;;;;;;;3.53;1.70;;;;;;;;;;5034523;28;20219;-77
2023/04/26 12:17:06;;;;;;;4.07;1.97;;;;;;;;;;5026690;28;20280;-79
2023/04/26 12:19:35;;;;;;;6.27;1.90;;;;;;;;;;5081014;28;20232;-78
2023/04/26 12:22:02;;;;;;;5.13;2.67;;;;;;;;;;5053170;28;20230;-78
2023/04/26 12:24:36;;;;;;;4.57;3.00;;;;;;;;;;5052932;28;20282;-79
2023/04/26 12:27:06;;;;;;;5.90;3.00;;;;;;;;;;5048738;28;20234;-78
2023/04/26 12:29:41;;;;;;;4.93;2.70;;;;;;;;;;5063669;28;20296;-80
2023/04/26 12:32:15;;;;;;;6.80;2.77;;;;;;;;;;5054887;28;20222;-81
2023/04/26 12:34:41;;;;;;;6.80;2.80;;;;;;;;;;5044621;28;20226;-78
2023/04/26 12:37:06;;;;;;;3.50;2.47;;;;;;;;;;5015435;28;20305;-79
2023/04/26 12:39:35;;;;;;;5.50;2.93;;;;;;;;;;5038301;28;20714;-81
2023/04/26 12:42:06;;;;;;;4.00;2.23;;;;;;;;;;5056343;28;20303;-81
2023/04/26 12:44:31;;;;;;;4.80;2.27;;;;;;;;;;5035331;28;20230;-80
2023/04/26 12:46:59;;;;;;;2.90;1.90;;;;;;;;;;5032919;28;20229;-81
2023/04/26 12:49:25;;;;;;;1.77;1.53;;;;;;;;;;5024383;28;20229;-80
2023/04/26 12:51:51;;;;;;;5.03;1.77;;;;;;;;;;5030463;28;20223;-79
2023/04/26 12:54:18;;;;;;;4.57;1.63;;;;;;;;;;5065572;28;20333;-78
2023/04/26 12:56:48;;;;;;;4.70;1.67;;;;;;;;;;5050971;28;20276;-81
2023/04/26 12:59:15;;;;;;;4.00;1.90;;;;;;;;;;5026730;28;20235;-80
2023/04/26 13:01:44;;;;;;;4.97;2.00;;;;;;;;;;5033958;28;20229;-77
2023/04/26 13:04:13;;;;;;;2.57;1.40;;;;;;;;;;5044599;28;20238;-79
2023/04/26 13:06:39;;;;;;;2.60;1.40;;;;;;;;;;5049535;28;20223;-80
2023/04/26 13:09:07;;;;;;;3.10;1.70;;;;;;;;;;5023357;28;20232;-80
2023/04/26 13:11:36;;;;;;;2.87;1.50;;;;;;;;;;5060497;28;20220;-82
2023/04/26 13:14:02;;;;;;;5.57;1.40;;;;;;;;;;5033679;28;20290;-80
2023/04/26 13:16:41;;;;;;;3.33;1.40;;;;;;;;;;5038392;28;20210;-81
2023/04/26 13:19:22;;;;;;;5.20;1.53;;;;;;;;;;5033944;28;20562;-81
2023/04/26 13:21:51;;;;;;;3.27;1.30;;;;;;;;;;5059831;28;20245;-78
2023/04/26 13:24:21;;;;;;;3.17;1.13;;;;;;;;;;5051161;28;20219;-81
2023/04/26 13:26:48;;;;;;;3.57;1.20;;;;;;;;;;5067025;28;20225;-82
2023/04/26 13:29:30;;;;;;;3.73;1.23;;;;;;;;;;5038555;28;20227;-80
2023/04/26 13:31:59;;;;;;;2.90;1.20;;;;;;;;;;5046749;28;20258;-78
2023/04/26 13:34:27;;;;;;;2.73;1.30;;;;;;;;;;5068018;28;20222;-79
2023/04/26 13:36:55;;;;;;;2.80;1.60;;;;;;;;;;5054057;28;20219;-78
2023/04/26 13:39:27;;;;;;;3.03;1.10;;;;;;;;;;5047955;28;20267;-80
2023/04/26 13:41:57;;;;;;;4.90;1.30;;;;;;;;;;5056709;28;20221;-77
2023/04/26 13:44:27;;;;;;;4.60;1.33;;;;;;;;;;5032620;28;20230;-79
2023/04/26 13:46:55;;;;;;;2.53;1.30;;;;;;;;;;5046616;28;20230;-77
2023/04/26 13:49:25;;;;;;;3.43;1.30;;;;;;;;;;5055008;28;20290;-82
2023/04/26 13:51:54;;;;;;;3.27;1.40;;;;;;;;;;5051016;28;20223;-79
2023/04/26 13:54:24;;;;;;;3.13;1.27;;;;;;;;;;5051986;28;20223;-80
2023/04/26 13:56:51;;;;;;;4.60;1.50;;;;;;;;;;5064962;28;20274;-78
2023/04/26 13:59:17;;;;;;;2.80;1.20;;;;;;;;;;5016935;28;20227;-79
2023/04/26 14:01:45;;;;;;;2.23;1.17;;;;;;;;;;5041669;28;20219;-79
2023/04/26 14:04:11;;;;;;;1.40;0.97;;;;;;;;;;5053840;28;20257;-76
2023/04/26 14:06:39;;;;;;;2.90;1.20;;;;;;;;;;5037561;28;20218;-77
2023/04/26 14:09:05;;;;;;;4.00;1.37;;;;;;;;;;5051939;28;20223;-80
2023/04/26 14:11:32;;;;;;;3.50;1.50;;;;;;;;;;5034680;28;20218;-78
2023/04/26 14:14:00;;;;;;;6.67;1.23;;;;;;;;;;5054984;28;20207;-79
2023/04/26 14:16:29;;;;;;;3.37;1.30;;;;;;;;;;5051483;28;20229;-78
2023/04/26 14:19:02;;;;;;;2.93;1.60;;;;;;;;;;5062851;28;20222;-78
2023/04/26 14:21:28;;;;;;;3.43;1.37;;;;;;;;;;5051898;28;20320;-78
2023/04/26 14:23:55;;;;;;;2.83;1.33;;;;;;;;;;5011611;28;20207;-80
2023/04/26 14:26:26;;;;;;;4.20;1.67;;;;;;;;;;5044154;28;20311;-80
2023/04/26 14:28:57;;;;;;;1.90;1.37;;;;;;;;;;5012271;28;20623;-80
2023/04/26 14:31:24;;;;;;;4.97;1.70;;;;;;;;;;5040796;28;20273;-78
2023/04/26 14:33:51;;;;;;;4.23;1.80;;;;;;;;;;5033970;28;20217;-81
2023/04/26 14:36:17;;;;;;;3.57;1.93;;;;;;;;;;5030920;28;20231;-80
2023/04/26 14:38:46;;;;;;;2.87;1.90;;;;;;;;;;5023410;28;20220;-80
2023/04/26 14:41:15;;;;;;;3.37;1.73;;;;;;;;;;5025728;28;20251;-81
2023/04/26 14:43:49;;;;;;;2.90;1.80;;;;;;;;;;5023160;28;20297;-77
2023/04/26 14:46:25;;;;;;;3.33;1.80;;;;;;;;;;5046622;28;20211;-79
2023/04/26 14:48:50;;;;;;;3.07;1.83;;;;;;;;;;5030595;28;20336;-79
2023/04/26 14:51:25;;;;;;;4.73;1.80;;;;;;;;;;5017786;28;20215;-80
2023/04/26 14:53:50;;;;;;;2.57;1.70;;;;;;;;;;5037933;28;20219;-82
2023/04/26 14:56:18;;;;;;;2.13;1.50;;;;;;;;;;5040837;28;20225;-79
2023/04/26 14:58:44;;;;;;;3.67;1.87;;;;;;;;;;5019963;28;20757;-80
2023/04/26 15:01:13;;;;;;;4.53;1.70;;;;;;;;;;5027331;28;20224;-80
2023/04/26 15:03:45;;;;;;;4.07;1.70;;;;;;;;;;5042738;28;20314;-86